NAY46GT GCRR-GCXO
Flight info
| Callsign | NAY46GT |
|---|---|
| Flight time | 0h 46m |
| Altitude | 12000 |
| Route | LARYS |
| Aircraft | AT76/M-SDFGRY/LB1 |
Departure
| Time | 2026-04-20 16:52 |
|---|---|
| Airport | César Manrique-Lanzarote Airport (GCRR) |
Arrival
| Time | 2026-04-20 17:38 |
|---|---|
| Airport | Tenerife Norte-Ciudad de La Laguna Airport (GCXO) |
| Time | Latitude | Longitude | Altitude | Speed | Heading |
|---|---|---|---|---|---|
| 2026-04-20 16:27 | 28.95153 | -13.60623 | 47 ft | 0 kts | 297° |
| 2026-04-20 16:45 | 28.95152 | -13.60622 | 47 ft | 1 kts | 297° |
| 2026-04-20 16:45 | 28.95148 | -13.60613 | 47 ft | 2 kts | 297° |
| 2026-04-20 16:45 | 28.95141 | -13.60598 | 45 ft | 2 kts | 297° |
| 2026-04-20 16:45 | 28.95135 | -13.60585 | 44 ft | 2 kts | 306° |
| 2026-04-20 16:46 | 28.95131 | -13.60580 | 45 ft | 1 kts | 343° |
| 2026-04-20 16:46 | 28.95131 | -13.60579 | 45 ft | 0 kts | 358° |
| 2026-04-20 16:46 | 28.95144 | -13.60557 | 45 ft | 6 kts | 78° |
| 2026-04-20 16:46 | 28.95142 | -13.60519 | 47 ft | 1 kts | 103° |
| 2026-04-20 16:47 | 28.95120 | -13.60463 | 44 ft | 14 kts | 117° |
| 2026-04-20 16:47 | 28.95009 | -13.60459 | 47 ft | 22 kts | 208° |
| 2026-04-20 16:47 | 28.94881 | -13.60535 | 46 ft | 19 kts | 206° |
| 2026-04-20 16:47 | 28.94768 | -13.60604 | 46 ft | 18 kts | 206° |
| 2026-04-20 16:48 | 28.94647 | -13.60671 | 43 ft | 23 kts | 207° |
| 2026-04-20 16:48 | 28.94501 | -13.60753 | 33 ft | 24 kts | 205° |
| 2026-04-20 16:48 | 28.94358 | -13.60840 | 27 ft | 22 kts | 207° |
| 2026-04-20 16:48 | 28.94223 | -13.60915 | 24 ft | 21 kts | 207° |
| 2026-04-20 16:49 | 28.94096 | -13.60988 | 24 ft | 20 kts | 210° |
| 2026-04-20 16:49 | 28.93957 | -13.61070 | 23 ft | 25 kts | 206° |
| 2026-04-20 16:49 | 28.93790 | -13.61166 | 21 ft | 29 kts | 211° |
| 2026-04-20 16:49 | 28.93676 | -13.61221 | 22 ft | 6 kts | 169° |
| 2026-04-20 16:50 | 28.93646 | -13.61193 | 20 ft | 4 kts | 127° |
| 2026-04-20 16:50 | 28.93619 | -13.61137 | 21 ft | 14 kts | 117° |
| 2026-04-20 16:50 | 28.93604 | -13.61060 | 20 ft | 6 kts | 46° |
| 2026-04-20 16:50 | 28.93616 | -13.61053 | 20 ft | 0 kts | 28° |
| 2026-04-20 16:51 | 28.93671 | -13.61021 | 22 ft | 33 kts | 27° |
| 2026-04-20 16:51 | 28.94068 | -13.60798 | 26 ft | 92 kts | 24° |
| 2026-04-20 16:51 | 28.94766 | -13.60387 | 112 ft | 125 kts | 31° |
| 2026-04-20 16:51 | 28.95528 | -13.59916 | 573 ft | 126 kts | 34° |
| 2026-04-20 16:52 | 28.96233 | -13.59327 | 1073 ft | 127 kts | 42° |
| 2026-04-20 16:52 | 28.96911 | -13.58623 | 1487 ft | 137 kts | 37° |
| 2026-04-20 16:52 | 28.97649 | -13.57869 | 1731 ft | 147 kts | 36° |
| 2026-04-20 16:52 | 28.98455 | -13.57050 | 1881 ft | 162 kts | 37° |
| 2026-04-20 16:53 | 28.99382 | -13.56237 | 1998 ft | 178 kts | 31° |
| 2026-04-20 16:53 | 29.00420 | -13.55381 | 2214 ft | 189 kts | 34° |
| 2026-04-20 16:53 | 29.01387 | -13.54307 | 2462 ft | 199 kts | 50° |
| 2026-04-20 16:53 | 29.02296 | -13.53127 | 2887 ft | 196 kts | 49° |
| 2026-04-20 16:54 | 29.02899 | -13.52362 | 3107 ft | 196 kts | 51° |
| 2026-04-20 16:54 | 29.03808 | -13.51162 | 3413 ft | 198 kts | 52° |
| 2026-04-20 16:54 | 29.04707 | -13.49962 | 3684 ft | 206 kts | 52° |
| 2026-04-20 16:54 | 29.05762 | -13.48772 | 3856 ft | 221 kts | 37° |
| 2026-04-20 16:55 | 29.07235 | -13.48309 | 4103 ft | 221 kts | 353° |
| 2026-04-20 16:55 | 29.08658 | -13.48856 | 4330 ft | 215 kts | 316° |
| 2026-04-20 16:55 | 29.09524 | -13.50101 | 4758 ft | 189 kts | 278° |
| 2026-04-20 16:55 | 29.09613 | -13.51515 | 4985 ft | 176 kts | 250° |
| 2026-04-20 16:56 | 29.09354 | -13.52880 | 5298 ft | 175 kts | 248° |
| 2026-04-20 16:56 | 29.09190 | -13.54231 | 5766 ft | 172 kts | 252° |
| 2026-04-20 16:56 | 29.09097 | -13.55623 | 6046 ft | 176 kts | 253° |
| 2026-04-20 16:56 | 29.08966 | -13.57013 | 6272 ft | 180 kts | 251° |
| 2026-04-20 16:57 | 29.08799 | -13.58412 | 6601 ft | 174 kts | 249° |
| 2026-04-20 16:57 | 29.08607 | -13.59780 | 6857 ft | 174 kts | 247° |
| 2026-04-20 16:57 | 29.08322 | -13.61105 | 7130 ft | 170 kts | 241° |
| 2026-04-20 16:57 | 29.07954 | -13.62385 | 7408 ft | 169 kts | 240° |
| 2026-04-20 16:58 | 29.07611 | -13.63676 | 7668 ft | 171 kts | 243° |
| 2026-04-20 16:58 | 29.07315 | -13.65008 | 7904 ft | 175 kts | 245° |
| 2026-04-20 16:58 | 29.07062 | -13.66377 | 8160 ft | 177 kts | 247° |
| 2026-04-20 16:58 | 29.06839 | -13.67742 | 8415 ft | 177 kts | 248° |
| 2026-04-20 16:59 | 29.06621 | -13.69130 | 8682 ft | 177 kts | 248° |
| 2026-04-20 16:59 | 29.06400 | -13.70518 | 8945 ft | 177 kts | 248° |
| 2026-04-20 16:59 | 29.06173 | -13.71901 | 9248 ft | 177 kts | 248° |
| 2026-04-20 16:59 | 29.05952 | -13.73283 | 9497 ft | 177 kts | 248° |
| 2026-04-20 17:00 | 29.05473 | -13.76145 | 9698 ft | 194 kts | 249° |
| 2026-04-20 17:00 | 29.05215 | -13.77693 | 9737 ft | 202 kts | 249° |
| 2026-04-20 17:00 | 29.04954 | -13.79282 | 9871 ft | 204 kts | 249° |
| 2026-04-20 17:01 | 29.04693 | -13.80868 | 10067 ft | 203 kts | 250° |
| 2026-04-20 17:01 | 29.04431 | -13.82452 | 10229 ft | 203 kts | 250° |
| 2026-04-20 17:01 | 29.04170 | -13.84036 | 10396 ft | 203 kts | 250° |
| 2026-04-20 17:01 | 29.03907 | -13.85622 | 10570 ft | 203 kts | 250° |
| 2026-04-20 17:02 | 29.03640 | -13.87206 | 10753 ft | 203 kts | 250° |
| 2026-04-20 17:02 | 29.03377 | -13.88788 | 10914 ft | 203 kts | 250° |
| 2026-04-20 17:02 | 29.03110 | -13.90374 | 11059 ft | 203 kts | 250° |
| 2026-04-20 17:02 | 29.02845 | -13.91964 | 11205 ft | 204 kts | 250° |
| 2026-04-20 17:03 | 29.02578 | -13.93556 | 11353 ft | 204 kts | 250° |
| 2026-04-20 17:03 | 29.02311 | -13.95148 | 11504 ft | 204 kts | 250° |
| 2026-04-20 17:03 | 29.02043 | -13.96741 | 11653 ft | 204 kts | 251° |
| 2026-04-20 17:03 | 29.01773 | -13.98341 | 11745 ft | 207 kts | 251° |
| 2026-04-20 17:04 | 29.01498 | -13.99971 | 11787 ft | 211 kts | 251° |
| 2026-04-20 17:04 | 29.01216 | -14.01637 | 11806 ft | 216 kts | 251° |
| 2026-04-20 17:04 | 29.00928 | -14.03337 | 11815 ft | 220 kts | 251° |
| 2026-04-20 17:04 | 29.00637 | -14.05065 | 11819 ft | 223 kts | 251° |
| 2026-04-20 17:05 | 29.00341 | -14.06811 | 11821 ft | 225 kts | 251° |
| 2026-04-20 17:05 | 29.00044 | -14.08570 | 11822 ft | 226 kts | 252° |
| 2026-04-20 17:05 | 28.99744 | -14.10339 | 11823 ft | 227 kts | 252° |
| 2026-04-20 17:05 | 28.99443 | -14.12117 | 11821 ft | 228 kts | 252° |
| 2026-04-20 17:06 | 28.99142 | -14.13899 | 11824 ft | 229 kts | 251° |
| 2026-04-20 17:06 | 28.98840 | -14.15685 | 11825 ft | 229 kts | 251° |
| 2026-04-20 17:06 | 28.98536 | -14.17472 | 11827 ft | 229 kts | 251° |
| 2026-04-20 17:06 | 28.98236 | -14.19241 | 11827 ft | 230 kts | 251° |
| 2026-04-20 17:07 | 28.97931 | -14.21035 | 11825 ft | 230 kts | 252° |
| 2026-04-20 17:07 | 28.97622 | -14.22833 | 11833 ft | 231 kts | 252° |
| 2026-04-20 17:07 | 28.97318 | -14.24634 | 11829 ft | 231 kts | 252° |
| 2026-04-20 17:07 | 28.97010 | -14.26436 | 11828 ft | 231 kts | 252° |
| 2026-04-20 17:08 | 28.96703 | -14.28239 | 11826 ft | 231 kts | 252° |
| 2026-04-20 17:08 | 28.96395 | -14.30041 | 11826 ft | 231 kts | 252° |
| 2026-04-20 17:08 | 28.96087 | -14.31844 | 11826 ft | 231 kts | 252° |
| 2026-04-20 17:08 | 28.95779 | -14.33647 | 11825 ft | 231 kts | 252° |
| 2026-04-20 17:09 | 28.95469 | -14.35451 | 11824 ft | 232 kts | 252° |
| 2026-04-20 17:09 | 28.95159 | -14.37259 | 11829 ft | 232 kts | 252° |
| 2026-04-20 17:09 | 28.94849 | -14.39072 | 11828 ft | 233 kts | 252° |
| 2026-04-20 17:09 | 28.94537 | -14.40885 | 11828 ft | 233 kts | 252° |
| 2026-04-20 17:10 | 28.94226 | -14.42700 | 11828 ft | 233 kts | 253° |
| 2026-04-20 17:10 | 28.93913 | -14.44516 | 11829 ft | 233 kts | 252° |
| 2026-04-20 17:10 | 28.93603 | -14.46333 | 11830 ft | 233 kts | 252° |
| 2026-04-20 17:10 | 28.93290 | -14.48151 | 11828 ft | 233 kts | 252° |
| 2026-04-20 17:11 | 28.92975 | -14.49969 | 11826 ft | 234 kts | 252° |
| 2026-04-20 17:11 | 28.92662 | -14.51789 | 11828 ft | 234 kts | 252° |
| 2026-04-20 17:11 | 28.92347 | -14.53610 | 11830 ft | 234 kts | 252° |
| 2026-04-20 17:11 | 28.92031 | -14.55430 | 11829 ft | 234 kts | 253° |
| 2026-04-20 17:12 | 28.91718 | -14.57252 | 11829 ft | 234 kts | 252° |
| 2026-04-20 17:12 | 28.91401 | -14.59073 | 11837 ft | 234 kts | 253° |
| 2026-04-20 17:12 | 28.91086 | -14.60898 | 11833 ft | 234 kts | 253° |
| 2026-04-20 17:12 | 28.90768 | -14.62720 | 11831 ft | 234 kts | 253° |
| 2026-04-20 17:13 | 28.90453 | -14.64545 | 11831 ft | 234 kts | 253° |
| 2026-04-20 17:13 | 28.90135 | -14.66373 | 11832 ft | 234 kts | 253° |
| 2026-04-20 17:13 | 28.89818 | -14.68197 | 11832 ft | 235 kts | 253° |
| 2026-04-20 17:13 | 28.89500 | -14.70023 | 11832 ft | 235 kts | 253° |
| 2026-04-20 17:14 | 28.89182 | -14.71849 | 11834 ft | 235 kts | 253° |
| 2026-04-20 17:14 | 28.88865 | -14.73674 | 11835 ft | 235 kts | 253° |
| 2026-04-20 17:14 | 28.88545 | -14.75504 | 11833 ft | 235 kts | 253° |
| 2026-04-20 17:14 | 28.88226 | -14.77331 | 11833 ft | 235 kts | 253° |
| 2026-04-20 17:15 | 28.87907 | -14.79160 | 11835 ft | 235 kts | 253° |
| 2026-04-20 17:15 | 28.87426 | -14.80903 | 11836 ft | 228 kts | 242° |
| 2026-04-20 17:15 | 28.86756 | -14.82542 | 11835 ft | 228 kts | 240° |
| 2026-04-20 17:15 | 28.86075 | -14.84177 | 11835 ft | 228 kts | 241° |
| 2026-04-20 17:16 | 28.85426 | -14.85835 | 11831 ft | 229 kts | 243° |
| 2026-04-20 17:16 | 28.84815 | -14.87519 | 11831 ft | 230 kts | 244° |
| 2026-04-20 17:16 | 28.84213 | -14.89211 | 11832 ft | 230 kts | 243° |
| 2026-04-20 17:16 | 28.83608 | -14.90904 | 11832 ft | 231 kts | 243° |
| 2026-04-20 17:17 | 28.83003 | -14.92597 | 11830 ft | 231 kts | 243° |
| 2026-04-20 17:17 | 28.82393 | -14.94291 | 11839 ft | 231 kts | 244° |
| 2026-04-20 17:17 | 28.81785 | -14.95984 | 11834 ft | 231 kts | 244° |
| 2026-04-20 17:17 | 28.81176 | -14.97681 | 11835 ft | 231 kts | 244° |
| 2026-04-20 17:18 | 28.80565 | -14.99379 | 11835 ft | 232 kts | 244° |
| 2026-04-20 17:18 | 28.79962 | -15.01056 | 11831 ft | 232 kts | 244° |
| 2026-04-20 17:18 | 28.79351 | -15.02755 | 11832 ft | 232 kts | 244° |
| 2026-04-20 17:18 | 28.78740 | -15.04456 | 11832 ft | 232 kts | 244° |
| 2026-04-20 17:19 | 28.78128 | -15.06153 | 11831 ft | 232 kts | 244° |
| 2026-04-20 17:19 | 28.77515 | -15.07854 | 11830 ft | 232 kts | 244° |
| 2026-04-20 17:19 | 28.76903 | -15.09553 | 11831 ft | 232 kts | 244° |
| 2026-04-20 17:19 | 28.76292 | -15.11252 | 11832 ft | 232 kts | 244° |
| 2026-04-20 17:20 | 28.75680 | -15.12951 | 11832 ft | 232 kts | 244° |
| 2026-04-20 17:20 | 28.75066 | -15.14648 | 11831 ft | 232 kts | 244° |
| 2026-04-20 17:20 | 28.74452 | -15.16349 | 11831 ft | 232 kts | 244° |
| 2026-04-20 17:20 | 28.73838 | -15.18047 | 11831 ft | 232 kts | 244° |
| 2026-04-20 17:21 | 28.73225 | -15.19746 | 11834 ft | 232 kts | 244° |
| 2026-04-20 17:21 | 28.72612 | -15.21444 | 11835 ft | 232 kts | 244° |
| 2026-04-20 17:21 | 28.71997 | -15.23143 | 11835 ft | 232 kts | 244° |
| 2026-04-20 17:21 | 28.71382 | -15.24845 | 11834 ft | 232 kts | 244° |
| 2026-04-20 17:22 | 28.70766 | -15.26543 | 11835 ft | 232 kts | 244° |
| 2026-04-20 17:22 | 28.70153 | -15.28241 | 11835 ft | 232 kts | 244° |
| 2026-04-20 17:22 | 28.69536 | -15.29939 | 11834 ft | 232 kts | 244° |
| 2026-04-20 17:22 | 28.68922 | -15.31638 | 11834 ft | 232 kts | 244° |
| 2026-04-20 17:23 | 28.68306 | -15.33334 | 11836 ft | 232 kts | 244° |
| 2026-04-20 17:23 | 28.67692 | -15.35033 | 11833 ft | 232 kts | 244° |
| 2026-04-20 17:23 | 28.67076 | -15.36728 | 11838 ft | 232 kts | 244° |
| 2026-04-20 17:23 | 28.66460 | -15.38420 | 11839 ft | 231 kts | 244° |
| 2026-04-20 17:24 | 28.65844 | -15.40115 | 11841 ft | 231 kts | 244° |
| 2026-04-20 17:24 | 28.65230 | -15.41808 | 11841 ft | 232 kts | 244° |
| 2026-04-20 17:24 | 28.64602 | -15.43527 | 11641 ft | 239 kts | 244° |
| 2026-04-20 17:24 | 28.63955 | -15.45307 | 11389 ft | 247 kts | 244° |
| 2026-04-20 17:25 | 28.63290 | -15.47130 | 11142 ft | 252 kts | 244° |
| 2026-04-20 17:25 | 28.62614 | -15.48986 | 10911 ft | 256 kts | 244° |
| 2026-04-20 17:25 | 28.61927 | -15.50868 | 10674 ft | 259 kts | 244° |
| 2026-04-20 17:25 | 28.61236 | -15.52769 | 10437 ft | 261 kts | 245° |
| 2026-04-20 17:26 | 28.60538 | -15.54683 | 10205 ft | 263 kts | 244° |
| 2026-04-20 17:26 | 28.59833 | -15.56605 | 9972 ft | 264 kts | 244° |
| 2026-04-20 17:26 | 28.59124 | -15.58534 | 9735 ft | 264 kts | 244° |
| 2026-04-20 17:26 | 28.58424 | -15.60443 | 9473 ft | 258 kts | 245° |
| 2026-04-20 17:27 | 28.57735 | -15.62310 | 9224 ft | 254 kts | 244° |
| 2026-04-20 17:27 | 28.57053 | -15.64148 | 8965 ft | 251 kts | 244° |
| 2026-04-20 17:27 | 28.56362 | -15.65962 | 8718 ft | 249 kts | 245° |
| 2026-04-20 17:27 | 28.55676 | -15.67734 | 8474 ft | 247 kts | 245° |
| 2026-04-20 17:28 | 28.54978 | -15.69517 | 8229 ft | 246 kts | 244° |
| 2026-04-20 17:28 | 28.54280 | -15.71293 | 7974 ft | 245 kts | 244° |
| 2026-04-20 17:28 | 28.53580 | -15.73065 | 7725 ft | 245 kts | 244° |
| 2026-04-20 17:28 | 28.52879 | -15.74827 | 7488 ft | 245 kts | 244° |
| 2026-04-20 17:29 | 28.52177 | -15.76587 | 7245 ft | 244 kts | 244° |
| 2026-04-20 17:29 | 28.51470 | -15.78347 | 7008 ft | 244 kts | 244° |
| 2026-04-20 17:29 | 28.50761 | -15.80104 | 6769 ft | 245 kts | 244° |
| 2026-04-20 17:29 | 28.50051 | -15.81859 | 6531 ft | 245 kts | 244° |
| 2026-04-20 17:30 | 28.49337 | -15.83615 | 6304 ft | 245 kts | 244° |
| 2026-04-20 17:30 | 28.48624 | -15.85367 | 6073 ft | 243 kts | 244° |
| 2026-04-20 17:30 | 28.47912 | -15.87111 | 5899 ft | 243 kts | 244° |
| 2026-04-20 17:30 | 28.47204 | -15.88855 | 5729 ft | 243 kts | 244° |
| 2026-04-20 17:31 | 28.46601 | -15.90634 | 5553 ft | 242 kts | 252° |
| 2026-04-20 17:31 | 28.46183 | -15.92486 | 5375 ft | 243 kts | 255° |
| 2026-04-20 17:31 | 28.45813 | -15.94359 | 5200 ft | 242 kts | 257° |
| 2026-04-20 17:31 | 28.45662 | -15.96270 | 5027 ft | 244 kts | 265° |
| 2026-04-20 17:32 | 28.45607 | -15.98191 | 4910 ft | 242 kts | 265° |
| 2026-04-20 17:32 | 28.45528 | -16.00101 | 4792 ft | 241 kts | 264° |
| 2026-04-20 17:32 | 28.45403 | -16.02001 | 4672 ft | 241 kts | 264° |
| 2026-04-20 17:32 | 28.45277 | -16.03903 | 4551 ft | 242 kts | 264° |
| 2026-04-20 17:33 | 28.45148 | -16.05808 | 4426 ft | 242 kts | 264° |
| 2026-04-20 17:33 | 28.45014 | -16.07706 | 4347 ft | 240 kts | 264° |
| 2026-04-20 17:33 | 28.44875 | -16.09588 | 4311 ft | 238 kts | 264° |
| 2026-04-20 17:33 | 28.44736 | -16.11447 | 4289 ft | 235 kts | 264° |
| 2026-04-20 17:34 | 28.44597 | -16.13285 | 4286 ft | 231 kts | 264° |
| 2026-04-20 17:34 | 28.44466 | -16.15071 | 4282 ft | 220 kts | 264° |
| 2026-04-20 17:34 | 28.44349 | -16.16728 | 4279 ft | 202 kts | 264° |
| 2026-04-20 17:34 | 28.44238 | -16.18257 | 4284 ft | 187 kts | 264° |
| 2026-04-20 17:35 | 28.44133 | -16.19693 | 4290 ft | 179 kts | 264° |
| 2026-04-20 17:35 | 28.44193 | -16.21074 | 4231 ft | 176 kts | 279° |
| 2026-04-20 17:35 | 28.44460 | -16.22407 | 3967 ft | 169 kts | 283° |
| 2026-04-20 17:35 | 28.44752 | -16.23647 | 3738 ft | 162 kts | 287° |
| 2026-04-20 17:36 | 28.45144 | -16.24826 | 3515 ft | 155 kts | 291° |
| 2026-04-20 17:36 | 28.45531 | -16.25909 | 3328 ft | 140 kts | 291° |
| 2026-04-20 17:36 | 28.45853 | -16.26863 | 3153 ft | 122 kts | 290° |
| 2026-04-20 17:36 | 28.46133 | -16.27755 | 2983 ft | 119 kts | 289° |
| 2026-04-20 17:37 | 28.46409 | -16.28641 | 2826 ft | 120 kts | 290° |
| 2026-04-20 17:37 | 28.46714 | -16.29532 | 2669 ft | 121 kts | 291° |
| 2026-04-20 17:37 | 28.47010 | -16.30423 | 2500 ft | 121 kts | 290° |
| 2026-04-20 17:37 | 28.47312 | -16.31314 | 2319 ft | 122 kts | 290° |
| 2026-04-20 17:38 | 28.47615 | -16.32216 | 2144 ft | 121 kts | 291° |
| 2026-04-20 17:38 | 28.47914 | -16.33096 | 2032 ft | 115 kts | 290° |
| 2026-04-20 17:38 | 28.48148 | -16.33795 | 2044 ft | 56 kts | 289° |
| 2026-04-20 17:38 | 28.48235 | -16.34062 | 2049 ft | 29 kts | 292° |
| 2026-04-20 17:39 | 28.48348 | -16.34190 | 2048 ft | 19 kts | 319° |
| 2026-04-20 17:39 | 28.48419 | -16.34269 | 2050 ft | 10 kts | 296° |
| 2026-04-20 17:39 | 28.48437 | -16.34321 | 2052 ft | 9 kts | 291° |
| 2026-04-20 17:39 | 28.48468 | -16.34416 | 2056 ft | 16 kts | 290° |
| 2026-04-20 17:40 | 28.48512 | -16.34548 | 2063 ft | 20 kts | 292° |
| 2026-04-20 17:40 | 28.48561 | -16.34643 | 2067 ft | 6 kts | 8° |
| 2026-04-20 17:40 | 28.48608 | -16.34616 | 2066 ft | 12 kts | 20° |
| 2026-04-20 17:40 | 28.48655 | -16.34596 | 2065 ft | 1 kts | 21° |
| 2026-04-20 17:41 | 28.48658 | -16.34595 | 2065 ft | 0 kts | 21° |
| 2026-04-20 17:41 | 28.48659 | -16.34595 | 2065 ft | 0 kts | 21° |